Time;durP1;ratioP1;P1;durP2;ratioP2;P2;SDS_P1;SDS_P2;PMS_P1;PMS_P2;Temp;Humidity;BMP_temperature;BMP_pressure;BME280_temperature;BME280_humidity;BME280_pressure;Samples;Min_cycle;Max_cycle;Signal;HPM_P1;HPM_P2
2021/06/14 00:00:18;;;;;;;4.24;2.57;;;;;;;;;;352851;151;857184;-58
2021/06/14 00:01:21;;;;;;;3.99;2.62;;;;;;;;;;350525;152;857241;-58
2021/06/14 00:02:23;;;;;;;3.77;2.49;;;;;;;;;;348792;150;857698;-57
2021/06/14 00:03:24;;;;;;;4.31;2.78;;;;;;;;;;353121;152;865624;-58
2021/06/14 00:04:26;;;;;;;2.80;2.09;;;;;;;;;;349225;152;859391;-58
2021/06/14 00:05:32;;;;;;;4.80;2.21;;;;;;;;;;350041;151;859668;-58
2021/06/14 00:06:36;;;;;;;3.41;2.35;;;;;;;;;;353195;152;857809;-58
2021/06/14 00:07:37;;;;;;;3.39;2.01;;;;;;;;;;351841;151;859567;-58
2021/06/14 00:08:43;;;;;;;5.56;2.49;;;;;;;;;;352800;152;857426;-58
2021/06/14 00:09:44;;;;;;;7.08;3.02;;;;;;;;;;351122;152;864815;-58
2021/06/14 00:10:47;;;;;;;3.96;2.32;;;;;;;;;;349310;151;857279;-57
2021/06/14 00:11:48;;;;;;;6.38;2.42;;;;;;;;;;349941;152;857999;-57
2021/06/14 00:12:50;;;;;;;4.87;2.24;;;;;;;;;;347928;152;857214;-57
2021/06/14 00:13:51;;;;;;;4.61;2.21;;;;;;;;;;350668;151;857781;-56
2021/06/14 00:14:53;;;;;;;4.11;2.92;;;;;;;;;;351811;152;857312;-56
2021/06/14 00:15:55;;;;;;;4.69;2.10;;;;;;;;;;351957;150;865028;-57
2021/06/14 00:16:56;;;;;;;3.88;1.96;;;;;;;;;;348333;152;865620;-56
2021/06/14 00:17:58;;;;;;;4.33;2.21;;;;;;;;;;347702;153;864954;-58
2021/06/14 00:19:00;;;;;;;3.04;2.31;;;;;;;;;;349832;151;857202;-58
2021/06/14 00:20:02;;;;;;;4.24;2.22;;;;;;;;;;347710;154;857382;-58
2021/06/14 00:21:05;;;;;;;5.48;2.43;;;;;;;;;;347878;150;864853;-58
2021/06/14 00:22:07;;;;;;;5.09;2.76;;;;;;;;;;351145;151;857807;-57
2021/06/14 00:23:08;;;;;;;4.24;2.26;;;;;;;;;;353523;152;858015;-57
2021/06/14 00:24:10;;;;;;;3.05;2.19;;;;;;;;;;353151;151;857530;-57
2021/06/14 00:25:12;;;;;;;6.40;2.51;;;;;;;;;;348128;152;857404;-57
2021/06/14 00:26:16;;;;;;;3.71;2.53;;;;;;;;;;348544;152;858327;-58
2021/06/14 00:27:17;;;;;;;3.24;2.21;;;;;;;;;;351095;151;857227;-58
2021/06/14 00:28:19;;;;;;;4.92;2.30;;;;;;;;;;351906;152;868367;-58
2021/06/14 00:29:20;;;;;;;3.92;2.21;;;;;;;;;;352087;152;860775;-58
2021/06/14 00:30:37;;;;;;;3.40;2.10;;;;;;;;;;351197;152;860066;-58
2021/06/14 00:31:39;;;;;;;6.46;2.32;;;;;;;;;;348596;152;857469;-58
2021/06/14 00:32:40;;;;;;;3.71;2.17;;;;;;;;;;348948;151;859044;-58
2021/06/14 00:33:42;;;;;;;3.84;2.09;;;;;;;;;;347745;154;857343;-57
2021/06/14 00:34:43;;;;;;;4.71;2.16;;;;;;;;;;352836;152;857248;-57
2021/06/14 00:35:46;;;;;;;2.60;2.14;;;;;;;;;;348704;151;859146;-58
2021/06/14 00:36:49;;;;;;;3.54;2.39;;;;;;;;;;349480;152;858704;-57
2021/06/14 00:37:50;;;;;;;2.86;2.17;;;;;;;;;;349979;150;857298;-58
2021/06/14 00:38:52;;;;;;;8.26;2.40;;;;;;;;;;347702;154;865576;-57
2021/06/14 00:39:53;;;;;;;2.95;2.01;;;;;;;;;;352109;152;858263;-57
2021/06/14 00:40:55;;;;;;;4.91;2.24;;;;;;;;;;350446;151;857422;-57
2021/06/14 00:41:57;;;;;;;3.80;2.63;;;;;;;;;;353519;152;865803;-57
2021/06/14 00:42:58;;;;;;;3.68;1.99;;;;;;;;;;352535;152;859107;-58
2021/06/14 00:44:00;;;;;;;3.84;1.95;;;;;;;;;;353494;151;857807;-58
2021/06/14 00:45:04;;;;;;;2.84;1.96;;;;;;;;;;353307;152;865644;-58
2021/06/14 00:46:06;;;;;;;4.63;1.97;;;;;;;;;;352575;151;857367;-58
2021/06/14 00:47:07;;;;;;;3.04;2.14;;;;;;;;;;352842;151;857478;-58
2021/06/14 00:48:09;;;;;;;3.95;1.86;;;;;;;;;;363208;148;865072;-58
2021/06/14 00:49:10;;;;;;;2.64;1.97;;;;;;;;;;361526;146;858316;-58
2021/06/14 00:50:15;;;;;;;2.93;1.87;;;;;;;;;;366066;147;857037;-58
2021/06/14 00:51:17;;;;;;;2.91;1.74;;;;;;;;;;360846;147;857410;-57
2021/06/14 00:52:19;;;;;;;3.72;1.96;;;;;;;;;;364654;146;858215;-57
2021/06/14 00:53:25;;;;;;;3.54;2.04;;;;;;;;;;360540;148;866512;-57
2021/06/14 00:54:27;;;;;;;4.03;2.23;;;;;;;;;;360859;147;859298;-57
2021/06/14 00:55:28;;;;;;;4.00;1.94;;;;;;;;;;359645;147;858242;-57
2021/06/14 00:56:31;;;;;;;6.39;2.13;;;;;;;;;;363540;147;857439;-57
2021/06/14 00:57:32;;;;;;;2.81;1.99;;;;;;;;;;364161;146;857334;-57
2021/06/14 00:58:35;;;;;;;3.73;2.12;;;;;;;;;;362541;148;857311;-57
2021/06/14 00:59:36;;;;;;;7.30;3.27;;;;;;;;;;363127;147;857281;-57
2021/06/14 01:00:38;;;;;;;2.48;1.94;;;;;;;;;;361272;147;857028;-58
2021/06/14 01:01:40;;;;;;;3.91;1.84;;;;;;;;;;361430;147;858912;-57
2021/06/14 01:02:42;;;;;;;4.79;1.98;;;;;;;;;;360619;146;864945;-57
2021/06/14 01:03:43;;;;;;;3.52;1.87;;;;;;;;;;360237;147;858600;-57
2021/06/14 01:04:45;;;;;;;4.87;2.05;;;;;;;;;;360759;147;857687;-58
2021/06/14 01:05:47;;;;;;;2.96;2.10;;;;;;;;;;364224;147;864765;-57
2021/06/14 01:06:51;;;;;;;4.18;2.19;;;;;;;;;;361520;147;857281;-58
2021/06/14 01:07:52;;;;;;;3.50;2.04;;;;;;;;;;364661;147;858101;-58
2021/06/14 01:08:54;;;;;;;4.75;2.14;;;;;;;;;;366447;147;861910;-56
2021/06/14 01:09:55;;;;;;;4.55;2.02;;;;;;;;;;364084;147;857247;-57
2021/06/14 01:10:57;;;;;;;4.81;2.07;;;;;;;;;;363829;146;859005;-57
2021/06/14 01:12:04;;;;;;;5.64;1.84;;;;;;;;;;365959;147;866060;-59
2021/06/14 01:13:07;;;;;;;4.11;2.21;;;;;;;;;;363383;147;859033;-58
2021/06/14 01:14:13;;;;;;;4.37;2.06;;;;;;;;;;364395;147;857088;-58
2021/06/14 01:15:16;;;;;;;3.43;2.07;;;;;;;;;;364950;147;857914;-57
2021/06/14 01:16:40;;;;;;;3.06;2.32;;;;;;;;;;363365;146;857283;-57
2021/06/14 01:17:49;;;;;;;3.47;2.14;;;;;;;;;;365149;147;859205;-58
2021/06/14 01:18:53;;;;;;;2.48;2.04;;;;;;;;;;356758;146;859134;-58
2021/06/14 01:20:13;;;;;;;3.40;1.97;;;;;;;;;;363768;148;859047;-58
2021/06/14 01:21:32;;;;;;;4.62;1.98;;;;;;;;;;363945;147;859062;-56
2021/06/14 01:22:48;;;;;;;2.96;1.81;;;;;;;;;;363963;147;859105;-59
2021/06/14 01:24:07;;;;;;;2.73;1.88;;;;;;;;;;362767;147;857592;-57
2021/06/14 01:25:16;;;;;;;5.62;2.13;;;;;;;;;;361334;146;857156;-58
2021/06/14 01:26:21;;;;;;;3.55;1.87;;;;;;;;;;363543;147;859765;-57
2021/06/14 01:27:24;;;;;;;3.19;1.79;;;;;;;;;;361970;146;858726;-57
2021/06/14 01:28:26;;;;;;;3.14;2.00;;;;;;;;;;360399;147;859833;-57
2021/06/14 01:29:28;;;;;;;3.94;2.53;;;;;;;;;;362259;147;857334;-57
2021/06/14 01:30:31;;;;;;;4.44;2.49;;;;;;;;;;365177;146;860760;-57
2021/06/14 01:31:33;;;;;;;4.24;2.07;;;;;;;;;;363533;147;858708;-57
2021/06/14 01:32:35;;;;;;;3.89;1.81;;;;;;;;;;364250;146;860094;-57
2021/06/14 01:33:37;;;;;;;5.07;2.23;;;;;;;;;;360689;147;858971;-57
2021/06/14 01:34:39;;;;;;;3.98;2.13;;;;;;;;;;359892;147;865336;-57
2021/06/14 01:35:42;;;;;;;2.67;1.94;;;;;;;;;;364989;146;857059;-57
2021/06/14 01:36:45;;;;;;;4.41;2.24;;;;;;;;;;364247;147;857131;-58
2021/06/14 01:37:47;;;;;;;5.56;2.24;;;;;;;;;;362974;146;858769;-58
2021/06/14 01:38:49;;;;;;;3.53;2.20;;;;;;;;;;365965;147;865126;-58
2021/06/14 01:39:50;;;;;;;4.02;2.04;;;;;;;;;;365715;147;861151;-58
2021/06/14 01:40:55;;;;;;;2.98;2.03;;;;;;;;;;364418;146;857292;-58
2021/06/14 01:41:56;;;;;;;4.55;2.06;;;;;;;;;;365878;147;859029;-57
2021/06/14 01:42:59;;;;;;;6.84;2.28;;;;;;;;;;363179;147;865357;-57
2021/06/14 01:44:01;;;;;;;6.14;2.07;;;;;;;;;;361339;147;857202;-58
2021/06/14 01:45:04;;;;;;;6.35;2.24;;;;;;;;;;364468;147;859551;-58
2021/06/14 01:46:07;;;;;;;3.49;2.37;;;;;;;;;;363617;146;858230;-57
2021/06/14 01:47:09;;;;;;;3.81;2.31;;;;;;;;;;365028;147;857777;-57
2021/06/14 01:48:11;;;;;;;4.34;2.20;;;;;;;;;;362497;147;857289;-58
2021/06/14 01:49:12;;;;;;;5.24;2.23;;;;;;;;;;364221;146;859130;-57
2021/06/14 01:50:15;;;;;;;4.70;2.52;;;;;;;;;;365606;147;858629;-57
2021/06/14 01:51:18;;;;;;;5.20;2.25;;;;;;;;;;363788;146;865151;-57
2021/06/14 01:52:20;;;;;;;2.96;2.31;;;;;;;;;;362693;147;865415;-57
2021/06/14 01:53:21;;;;;;;5.03;2.13;;;;;;;;;;362264;147;865861;-56
2021/06/14 01:54:23;;;;;;;3.74;2.03;;;;;;;;;;360676;147;859271;-57
2021/06/14 01:55:25;;;;;;;3.82;2.06;;;;;;;;;;359238;150;857893;-58
2021/06/14 01:56:28;;;;;;;4.04;2.19;;;;;;;;;;363248;147;865056;-58
2021/06/14 01:57:29;;;;;;;2.85;2.19;;;;;;;;;;365001;147;859090;-55
2021/06/14 01:58:31;;;;;;;4.23;2.30;;;;;;;;;;366329;147;859178;-59
2021/06/14 01:59:35;;;;;;;7.23;2.31;;;;;;;;;;363681;147;857940;-57
2021/06/14 02:00:40;;;;;;;4.21;1.94;;;;;;;;;;362664;148;858002;-57
2021/06/14 02:01:42;;;;;;;2.70;1.97;;;;;;;;;;362930;147;865049;-56
2021/06/14 02:02:44;;;;;;;5.05;2.31;;;;;;;;;;363190;146;857345;-56
2021/06/14 02:03:45;;;;;;;5.42;2.55;;;;;;;;;;363097;147;858167;-59
2021/06/14 02:04:47;;;;;;;3.73;2.23;;;;;;;;;;363964;146;864983;-58
2021/06/14 02:05:49;;;;;;;2.71;2.28;;;;;;;;;;366382;147;857197;-55
2021/06/14 02:06:51;;;;;;;3.36;2.11;;;;;;;;;;361957;147;864704;-57
2021/06/14 02:07:53;;;;;;;3.89;2.34;;;;;;;;;;356391;149;864942;-57
2021/06/14 02:08:54;;;;;;;4.74;2.52;;;;;;;;;;365373;147;857807;-57
2021/06/14 02:09:56;;;;;;;3.03;2.18;;;;;;;;;;361851;147;857193;-57
2021/06/14 02:10:58;;;;;;;4.55;2.51;;;;;;;;;;363545;146;858909;-57
2021/06/14 02:12:01;;;;;;;4.62;2.51;;;;;;;;;;362269;147;859170;-58
2021/06/14 02:13:03;;;;;;;3.65;2.42;;;;;;;;;;363011;147;858781;-57
2021/06/14 02:14:05;;;;;;;2.96;2.24;;;;;;;;;;360787;147;866805;-59
2021/06/14 02:15:07;;;;;;;3.99;2.46;;;;;;;;;;362022;147;857165;-58
2021/06/14 02:16:09;;;;;;;4.02;2.49;;;;;;;;;;363248;146;860628;-58
2021/06/14 02:17:12;;;;;;;3.56;2.29;;;;;;;;;;365248;147;866106;-57
2021/06/14 02:18:14;;;;;;;5.52;2.58;;;;;;;;;;362989;147;857683;-58
2021/06/14 02:19:16;;;;;;;4.61;2.55;;;;;;;;;;358807;150;858892;-59
2021/06/14 02:20:19;;;;;;;3.42;2.35;;;;;;;;;;361245;147;864846;-58
2021/06/14 02:21:21;;;;;;;4.51;2.42;;;;;;;;;;362139;146;857667;-58
2021/06/14 02:22:22;;;;;;;5.39;2.65;;;;;;;;;;361588;147;864862;-58
2021/06/14 02:23:24;;;;;;;4.15;2.55;;;;;;;;;;361541;147;864874;-58
2021/06/14 02:24:25;;;;;;;3.82;2.34;;;;;;;;;;362450;147;857335;-59
2021/06/14 02:25:27;;;;;;;3.56;2.21;;;;;;;;;;362425;147;865356;-58
2021/06/14 02:26:29;;;;;;;5.33;2.56;;;;;;;;;;364126;147;857333;-58
2021/06/14 02:27:31;;;;;;;5.43;2.72;;;;;;;;;;359673;147;857434;-57
2021/06/14 02:28:32;;;;;;;4.07;2.40;;;;;;;;;;364203;147;857425;-58
2021/06/14 02:29:34;;;;;;;6.08;2.46;;;;;;;;;;364223;147;857333;-58
2021/06/14 02:30:36;;;;;;;3.84;2.15;;;;;;;;;;364279;147;859163;-58
2021/06/14 02:31:38;;;;;;;2.79;2.20;;;;;;;;;;363515;147;859102;-58
2021/06/14 02:32:40;;;;;;;5.88;2.35;;;;;;;;;;362979;147;858859;-57
2021/06/14 02:33:41;;;;;;;3.96;2.21;;;;;;;;;;364704;147;858038;-57
2021/06/14 02:34:43;;;;;;;3.69;2.36;;;;;;;;;;363156;147;865375;-58
2021/06/14 02:35:45;;;;;;;3.09;2.12;;;;;;;;;;361694;147;867856;-58
2021/06/14 02:36:48;;;;;;;3.33;2.32;;;;;;;;;;363165;147;858908;-58
2021/06/14 02:37:52;;;;;;;4.49;2.19;;;;;;;;;;366225;147;857214;-57
2021/06/14 02:38:54;;;;;;;5.35;2.24;;;;;;;;;;361464;147;857436;-57
2021/06/14 02:39:55;;;;;;;5.66;2.24;;;;;;;;;;363705;146;857311;-57
2021/06/14 02:40:58;;;;;;;3.73;2.03;;;;;;;;;;365806;147;864731;-57
2021/06/14 02:41:59;;;;;;;5.27;2.00;;;;;;;;;;365650;147;857289;-58
2021/06/14 02:43:03;;;;;;;2.57;2.20;;;;;;;;;;362734;146;857686;-59
2021/06/14 02:44:05;;;;;;;5.64;2.46;;;;;;;;;;362176;147;865890;-59
2021/06/14 02:45:07;;;;;;;5.55;2.34;;;;;;;;;;365845;147;857757;-59
2021/06/14 02:46:10;;;;;;;4.19;2.19;;;;;;;;;;361856;146;857037;-57
2021/06/14 02:47:12;;;;;;;2.64;1.95;;;;;;;;;;364722;147;858692;-58
2021/06/14 02:48:14;;;;;;;3.41;1.87;;;;;;;;;;358559;147;857893;-58
2021/06/14 02:49:16;;;;;;;3.75;2.40;;;;;;;;;;360272;148;857205;-56
2021/06/14 02:50:18;;;;;;;3.50;2.54;;;;;;;;;;358446;148;857157;-58
2021/06/14 02:51:19;;;;;;;6.79;1.87;;;;;;;;;;352190;150;863766;-58
2021/06/14 02:52:21;;;;;;;4.53;2.29;;;;;;;;;;352647;148;857351;-57
2021/06/14 02:53:23;;;;;;;4.48;2.15;;;;;;;;;;356960;147;857388;-58
2021/06/14 02:54:26;;;;;;;6.05;2.05;;;;;;;;;;358734;148;857217;-58
2021/06/14 02:55:34;;;;;;;4.02;2.22;;;;;;;;;;360906;147;857341;-58
2021/06/14 02:56:38;;;;;;;4.44;2.09;;;;;;;;;;359857;147;858744;-56
2021/06/14 02:57:42;;;;;;;4.43;2.33;;;;;;;;;;360171;148;864974;-57
2021/06/14 02:58:44;;;;;;;3.52;2.05;;;;;;;;;;360089;147;858859;-57
2021/06/14 02:59:46;;;;;;;3.81;2.17;;;;;;;;;;359923;147;857754;-59
2021/06/14 03:00:48;;;;;;;3.49;2.01;;;;;;;;;;362793;147;857263;-58
2021/06/14 03:01:50;;;;;;;3.32;2.21;;;;;;;;;;360538;147;865363;-57
2021/06/14 03:02:53;;;;;;;4.06;2.39;;;;;;;;;;359796;147;864985;-57
2021/06/14 03:03:57;;;;;;;5.12;2.22;;;;;;;;;;359568;148;864785;-59
2021/06/14 03:04:58;;;;;;;3.57;2.19;;;;;;;;;;360692;147;858563;-57
2021/06/14 03:06:00;;;;;;;3.86;1.89;;;;;;;;;;358277;148;858158;-59
2021/06/14 03:07:02;;;;;;;4.24;2.35;;;;;;;;;;360628;148;857816;-59
2021/06/14 03:08:04;;;;;;;2.43;1.78;;;;;;;;;;358542;147;857191;-57
2021/06/14 03:09:06;;;;;;;3.20;2.25;;;;;;;;;;362625;148;857184;-59
2021/06/14 03:10:09;;;;;;;3.98;2.08;;;;;;;;;;361792;147;857150;-58
2021/06/14 03:11:11;;;;;;;3.41;2.04;;;;;;;;;;359184;148;857589;-58
2021/06/14 03:12:12;;;;;;;3.41;1.96;;;;;;;;;;357594;148;858507;-58
2021/06/14 03:13:14;;;;;;;2.73;2.06;;;;;;;;;;358255;147;857329;-59
2021/06/14 03:14:15;;;;;;;6.52;2.34;;;;;;;;;;359773;147;864711;-59
2021/06/14 03:15:18;;;;;;;4.06;1.99;;;;;;;;;;361267;148;857287;-58
2021/06/14 03:16:23;;;;;;;2.28;2.02;;;;;;;;;;359282;147;858615;-58
2021/06/14 03:17:24;;;;;;;2.72;2.15;;;;;;;;;;359280;148;857240;-57
2021/06/14 03:18:26;;;;;;;3.21;1.73;;;;;;;;;;362924;148;857376;-56
2021/06/14 03:19:28;;;;;;;3.31;2.10;;;;;;;;;;361319;148;864648;-57
2021/06/14 03:20:31;;;;;;;4.66;2.32;;;;;;;;;;363761;148;864840;-56
2021/06/14 03:21:33;;;;;;;3.33;2.21;;;;;;;;;;358811;147;859180;-57
2021/06/14 03:22:37;;;;;;;4.97;2.05;;;;;;;;;;358373;148;865879;-59
2021/06/14 03:23:38;;;;;;;4.92;2.12;;;;;;;;;;359690;148;857314;-56
2021/06/14 03:24:40;;;;;;;2.24;1.76;;;;;;;;;;358462;147;858662;-58
2021/06/14 03:25:42;;;;;;;4.95;2.20;;;;;;;;;;358659;148;866232;-55
2021/06/14 03:26:45;;;;;;;5.68;2.22;;;;;;;;;;360177;148;859518;-57
2021/06/14 03:27:46;;;;;;;6.22;2.27;;;;;;;;;;361285;147;857257;-57
2021/06/14 03:28:48;;;;;;;3.86;2.14;;;;;;;;;;362729;147;858805;-57
2021/06/14 03:29:50;;;;;;;4.76;2.14;;;;;;;;;;361054;148;858124;-57
2021/06/14 03:30:53;;;;;;;3.77;2.19;;;;;;;;;;360910;147;859013;-57
2021/06/14 03:31:55;;;;;;;4.11;2.23;;;;;;;;;;364028;148;857240;-57
2021/06/14 03:32:56;;;;;;;6.11;2.12;;;;;;;;;;359331;148;858770;-58
2021/06/14 03:33:58;;;;;;;3.06;2.12;;;;;;;;;;353564;150;860229;-58
2021/06/14 03:35:00;;;;;;;2.74;2.06;;;;;;;;;;358214;150;857689;-58
2021/06/14 03:36:02;;;;;;;4.11;1.94;;;;;;;;;;353240;148;864563;-58
2021/06/14 03:37:04;;;;;;;3.25;2.24;;;;;;;;;;358971;147;864666;-59
2021/06/14 03:38:06;;;;;;;3.72;2.25;;;;;;;;;;359728;149;857184;-59
2021/06/14 03:39:08;;;;;;;2.97;2.15;;;;;;;;;;358839;148;857243;-56
2021/06/14 03:40:11;;;;;;;3.08;1.85;;;;;;;;;;358764;147;858784;-57
2021/06/14 03:41:13;;;;;;;3.79;2.27;;;;;;;;;;356650;150;858794;-57
2021/06/14 03:42:18;;;;;;;3.64;2.08;;;;;;;;;;359919;148;860430;-57
2021/06/14 03:43:20;;;;;;;4.07;2.12;;;;;;;;;;357951;148;857150;-57
2021/06/14 03:44:22;;;;;;;3.38;2.31;;;;;;;;;;359888;147;859688;-57
2021/06/14 03:45:24;;;;;;;4.73;2.35;;;;;;;;;;359575;147;857240;-56
2021/06/14 03:46:27;;;;;;;5.69;2.12;;;;;;;;;;357253;148;857290;-57
2021/06/14 03:47:29;;;;;;;5.64;2.38;;;;;;;;;;356518;147;858767;-57
2021/06/14 03:48:30;;;;;;;4.07;2.38;;;;;;;;;;358773;147;857579;-58
2021/06/14 03:49:32;;;;;;;3.43;2.29;;;;;;;;;;359042;149;857942;-57
2021/06/14 03:50:35;;;;;;;3.60;1.96;;;;;;;;;;359475;147;859478;-57
2021/06/14 03:51:37;;;;;;;2.74;2.29;;;;;;;;;;360194;147;857294;-58
2021/06/14 03:52:40;;;;;;;3.74;2.22;;;;;;;;;;358560;149;859847;-57
2021/06/14 03:53:56;;;;;;;2.34;1.99;;;;;;;;;;358486;147;859890;-58
2021/06/14 03:54:45;;;;;;;4.66;2.16;;;;;;;;;;356518;149;857323;-60
2021/06/14 03:55:47;;;;;;;2.28;2.08;;;;;;;;;;359308;146;857388;-58
2021/06/14 03:56:49;;;;;;;3.27;2.31;;;;;;;;;;359373;146;857309;-58
2021/06/14 03:57:51;;;;;;;4.08;2.68;;;;;;;;;;358681;147;864844;-57
2021/06/14 03:58:53;;;;;;;3.36;2.00;;;;;;;;;;358004;147;857431;-58
2021/06/14 03:59:54;;;;;;;3.99;2.28;;;;;;;;;;359538;146;857401;-57
2021/06/14 04:00:56;;;;;;;3.61;2.09;;;;;;;;;;358847;149;866569;-57
2021/06/14 04:01:58;;;;;;;2.90;1.88;;;;;;;;;;357971;147;866689;-57
2021/06/14 04:02:59;;;;;;;3.19;2.20;;;;;;;;;;357003;149;857401;-58
2021/06/14 04:04:46;;;;;;;4.21;2.37;;;;;;;;;;359641;148;857700;-59
2021/06/14 04:05:08;;;;;;;3.92;2.07;;;;;;;;;;346360;147;857882;-58
2021/06/14 04:06:10;;;;;;;3.76;2.11;;;;;;;;;;358779;150;857892;-59
2021/06/14 04:07:12;;;;;;;3.54;2.16;;;;;;;;;;352145;152;858666;-59
2021/06/14 04:08:13;;;;;;;3.69;2.56;;;;;;;;;;354070;150;858038;-60
2021/06/14 04:09:15;;;;;;;4.91;2.14;;;;;;;;;;353369;152;857251;-57
2021/06/14 04:10:18;;;;;;;5.01;2.36;;;;;;;;;;353610;151;857232;-58
2021/06/14 04:11:20;;;;;;;7.24;2.31;;;;;;;;;;352624;150;860315;-58
2021/06/14 04:12:21;;;;;;;2.85;2.14;;;;;;;;;;352077;151;857690;-59
2021/06/14 04:13:23;;;;;;;5.94;2.06;;;;;;;;;;353646;151;857209;-58
2021/06/14 04:14:25;;;;;;;3.16;2.03;;;;;;;;;;352742;151;858821;-58
2021/06/14 04:15:26;;;;;;;2.96;2.25;;;;;;;;;;350929;152;866622;-57
2021/06/14 04:16:28;;;;;;;3.02;1.85;;;;;;;;;;351801;151;857331;-58
2021/06/14 04:17:30;;;;;;;2.26;1.81;;;;;;;;;;358957;150;857486;-57
2021/06/14 04:18:31;;;;;;;4.98;2.25;;;;;;;;;;353272;150;859492;-58
2021/06/14 04:19:33;;;;;;;2.69;2.01;;;;;;;;;;351872;150;867921;-56
2021/06/14 04:20:36;;;;;;;3.71;2.19;;;;;;;;;;353020;152;858985;-58
2021/06/14 04:21:38;;;;;;;4.48;2.07;;;;;;;;;;352254;151;858255;-58
2021/06/14 04:22:39;;;;;;;5.18;2.04;;;;;;;;;;348638;151;857912;-57
2021/06/14 04:23:41;;;;;;;3.31;2.14;;;;;;;;;;352304;150;859329;-60
2021/06/14 04:24:42;;;;;;;4.76;2.13;;;;;;;;;;351545;151;859247;-57
2021/06/14 04:25:44;;;;;;;3.07;2.18;;;;;;;;;;350620;151;857208;-58
2021/06/14 04:26:46;;;;;;;2.19;1.82;;;;;;;;;;351209;152;865120;-57
2021/06/14 04:27:47;;;;;;;2.59;1.92;;;;;;;;;;352145;150;864765;-57
2021/06/14 04:28:49;;;;;;;6.40;2.01;;;;;;;;;;349963;151;857200;-57
2021/06/14 04:29:50;;;;;;;4.35;2.15;;;;;;;;;;349738;152;857611;-56
2021/06/14 04:30:52;;;;;;;3.49;2.11;;;;;;;;;;349611;150;857285;-56
2021/06/14 04:31:54;;;;;;;5.13;2.47;;;;;;;;;;351842;152;858976;-57
2021/06/14 04:32:55;;;;;;;3.61;2.15;;;;;;;;;;351782;152;858229;-58
2021/06/14 04:33:57;;;;;;;4.31;1.96;;;;;;;;;;350785;150;859697;-56
2021/06/14 04:34:58;;;;;;;3.86;1.96;;;;;;;;;;351359;152;858694;-57
2021/06/14 04:36:02;;;;;;;3.74;1.81;;;;;;;;;;350023;152;857230;-55
2021/06/14 04:37:04;;;;;;;4.99;1.96;;;;;;;;;;349904;151;857240;-56
2021/06/14 04:38:05;;;;;;;3.32;2.17;;;;;;;;;;349461;152;857684;-57
2021/06/14 04:39:07;;;;;;;4.74;2.39;;;;;;;;;;351982;151;857975;-58
2021/06/14 04:40:09;;;;;;;3.19;2.07;;;;;;;;;;350062;151;857315;-58
2021/06/14 04:41:11;;;;;;;2.81;1.94;;;;;;;;;;348110;152;857184;-59
2021/06/14 04:42:13;;;;;;;5.61;1.81;;;;;;;;;;351854;150;860820;-57
2021/06/14 04:43:14;;;;;;;3.62;1.85;;;;;;;;;;349659;152;857261;-57
2021/06/14 04:44:16;;;;;;;5.31;1.99;;;;;;;;;;349456;152;857239;-57
2021/06/14 04:45:18;;;;;;;3.20;2.21;;;;;;;;;;351101;150;864719;-57
2021/06/14 04:46:21;;;;;;;3.34;1.82;;;;;;;;;;348639;151;857261;-56
2021/06/14 04:47:23;;;;;;;3.31;1.98;;;;;;;;;;345591;153;857354;-57
2021/06/14 04:48:24;;;;;;;7.33;2.02;;;;;;;;;;353578;147;857268;-57
2021/06/14 04:49:26;;;;;;;3.35;1.98;;;;;;;;;;362248;147;864940;-58
2021/06/14 04:50:28;;;;;;;3.14;1.85;;;;;;;;;;362281;146;857287;-58
2021/06/14 04:51:29;;;;;;;4.05;1.92;;;;;;;;;;365436;147;857810;-58
2021/06/14 04:52:32;;;;;;;4.62;2.33;;;;;;;;;;365531;147;857448;-57
2021/06/14 04:53:33;;;;;;;2.53;1.47;;;;;;;;;;363779;146;859172;-57
2021/06/14 04:54:35;;;;;;;3.79;1.76;;;;;;;;;;366050;147;859951;-57
2021/06/14 04:55:37;;;;;;;2.92;1.80;;;;;;;;;;363113;147;857234;-57
2021/06/14 04:56:39;;;;;;;5.01;1.81;;;;;;;;;;363712;147;857212;-58
2021/06/14 04:57:40;;;;;;;3.36;2.20;;;;;;;;;;365982;147;857087;-57
2021/06/14 04:58:42;;;;;;;5.24;1.88;;;;;;;;;;363542;147;857195;-59
2021/06/14 04:59:44;;;;;;;4.56;1.98;;;;;;;;;;362682;146;857119;-59
2021/06/14 05:00:47;;;;;;;4.31;2.02;;;;;;;;;;361807;147;857375;-60
2021/06/14 05:01:48;;;;;;;4.49;1.84;;;;;;;;;;361227;147;858760;-59
2021/06/14 05:02:50;;;;;;;2.74;1.76;;;;;;;;;;363411;146;857745;-56
2021/06/14 05:03:54;;;;;;;2.94;2.19;;;;;;;;;;363104;148;857205;-59
2021/06/14 05:04:56;;;;;;;3.13;1.92;;;;;;;;;;362430;146;864703;-59
2021/06/14 05:05:58;;;;;;;3.59;1.74;;;;;;;;;;361324;147;859183;-58
2021/06/14 05:07:00;;;;;;;3.42;1.67;;;;;;;;;;365885;147;858139;-58
2021/06/14 05:08:01;;;;;;;3.04;1.79;;;;;;;;;;363446;147;866934;-60
2021/06/14 05:09:03;;;;;;;4.27;1.83;;;;;;;;;;365852;147;857512;-59
2021/06/14 05:10:05;;;;;;;2.77;1.68;;;;;;;;;;361311;147;857285;-58
2021/06/14 05:11:07;;;;;;;5.72;1.86;;;;;;;;;;364864;147;857205;-58
2021/06/14 05:12:09;;;;;;;6.01;2.01;;;;;;;;;;364380;147;857212;-58
2021/06/14 05:13:10;;;;;;;2.91;1.55;;;;;;;;;;359760;147;857137;-57
2021/06/14 05:14:12;;;;;;;2.76;1.56;;;;;;;;;;365402;146;860760;-58
2021/06/14 05:15:14;;;;;;;3.22;1.85;;;;;;;;;;363636;147;857263;-58
2021/06/14 05:16:15;;;;;;;3.47;1.89;;;;;;;;;;362132;146;857184;-59
2021/06/14 05:17:17;;;;;;;2.60;1.79;;;;;;;;;;359412;147;857270;-57
2021/06/14 05:18:19;;;;;;;3.44;2.16;;;;;;;;;;363000;147;857334;-58
2021/06/14 05:19:20;;;;;;;3.28;1.81;;;;;;;;;;363024;147;864786;-58
2021/06/14 05:20:24;;;;;;;3.25;1.98;;;;;;;;;;365851;147;856647;-59
2021/06/14 05:21:25;;;;;;;2.21;1.56;;;;;;;;;;365536;147;857174;-57
2021/06/14 05:22:27;;;;;;;2.72;1.88;;;;;;;;;;362235;146;857302;-58
2021/06/14 05:23:28;;;;;;;3.72;1.92;;;;;;;;;;364419;147;857371;-58
2021/06/14 05:24:30;;;;;;;3.62;1.98;;;;;;;;;;364091;147;859070;-57
2021/06/14 05:25:32;;;;;;;3.53;2.04;;;;;;;;;;361100;146;858580;-57
2021/06/14 05:26:36;;;;;;;2.79;1.81;;;;;;;;;;361007;147;857402;-58
2021/06/14 05:27:37;;;;;;;4.94;2.18;;;;;;;;;;363421;147;857259;-58
2021/06/14 05:28:39;;;;;;;2.85;2.19;;;;;;;;;;358428;146;857218;-58
2021/06/14 05:29:40;;;;;;;2.60;1.96;;;;;;;;;;363658;147;857271;-57
2021/06/14 05:30:44;;;;;;;4.41;2.26;;;;;;;;;;364598;146;859486;-58
2021/06/14 05:31:45;;;;;;;2.81;1.57;;;;;;;;;;366488;147;858970;-58
2021/06/14 05:32:47;;;;;;;4.13;2.08;;;;;;;;;;364842;147;857132;-58
2021/06/14 05:33:48;;;;;;;3.49;2.05;;;;;;;;;;364347;147;857297;-58
2021/06/14 05:34:50;;;;;;;4.64;2.00;;;;;;;;;;366437;147;857220;-58
2021/06/14 05:35:52;;;;;;;6.74;2.00;;;;;;;;;;361687;147;857325;-56
2021/06/14 05:36:55;;;;;;;4.77;2.10;;;;;;;;;;360891;146;857302;-58
2021/06/14 05:37:57;;;;;;;4.17;2.08;;;;;;;;;;360669;147;857993;-59
2021/06/14 05:39:01;;;;;;;6.41;2.36;;;;;;;;;;364686;147;857251;-59
2021/06/14 05:40:03;;;;;;;2.74;2.31;;;;;;;;;;360180;147;857645;-59
2021/06/14 05:41:04;;;;;;;3.57;1.77;;;;;;;;;;361105;147;865498;-58
2021/06/14 05:42:06;;;;;;;3.42;1.89;;;;;;;;;;362904;146;859810;-57
2021/06/14 05:43:07;;;;;;;3.45;1.96;;;;;;;;;;361225;147;865251;-58
2021/06/14 05:44:09;;;;;;;2.69;2.08;;;;;;;;;;361366;147;864672;-59
2021/06/14 05:45:11;;;;;;;3.37;1.99;;;;;;;;;;365843;146;857279;-58
2021/06/14 05:46:14;;;;;;;2.70;2.15;;;;;;;;;;364979;146;860042;-59
2021/06/14 06:05:39;;;;;;;4.27;2.48;;;;;;;19.44;57.43;150504.06;374885;142;874728;-59
2021/06/14 06:06:43;;;;;;;3.25;2.11;;;;;;;;;;363117;146;859137;-56
2021/06/14 06:07:44;;;;;;;4.14;2.50;;;;;;;;;;363911;144;860793;-58
2021/06/14 06:08:46;;;;;;;4.63;2.46;;;;;;;;;;362449;145;857252;-59
2021/06/14 06:09:47;;;;;;;3.45;2.35;;;;;;;;;;365527;144;866600;-58
2021/06/14 06:10:49;;;;;;;5.24;2.37;;;;;;;;;;362988;145;857085;-59
2021/06/14 06:11:51;;;;;;;4.39;2.37;;;;;;;;;;361847;146;866412;-59
2021/06/14 06:12:53;;;;;;;3.22;2.26;;;;;;;;;;365062;145;857179;-57
2021/06/14 06:13:54;;;;;;;5.76;2.35;;;;;;;;;;359900;146;859850;-58
2021/06/14 06:14:56;;;;;;;5.41;2.54;;;;;;;;;;362477;145;858986;-59
2021/06/14 06:15:57;;;;;;;3.44;2.36;;;;;;;;;;363452;144;857129;-59
2021/06/14 06:16:59;;;;;;;3.22;2.28;;;;;;;;;;360883;149;857241;-59
2021/06/14 06:18:00;;;;;;;3.47;2.48;;;;;;;;;;362442;146;864734;-58
2021/06/14 06:19:02;;;;;;;3.24;2.42;;;;;;;;;;361759;144;857776;-58
2021/06/14 06:20:08;;;;;;;3.41;2.60;;;;;;;;;;359418;149;857249;-58
2021/06/14 06:21:09;;;;;;;3.71;2.28;;;;;;;;;;362006;145;857331;-59
2021/06/14 06:22:12;;;;;;;4.79;2.63;;;;;;;;;;363884;145;858901;-59
2021/06/14 06:23:13;;;;;;;3.15;2.53;;;;;;;;;;364297;145;858261;-59
2021/06/14 06:24:15;;;;;;;4.05;2.59;;;;;;;;;;358434;147;857209;-57
2021/06/14 06:25:17;;;;;;;4.57;2.60;;;;;;;;;;359124;148;865774;-58
2021/06/14 06:26:21;;;;;;;4.34;2.71;;;;;;;;;;357795;148;865020;-58